createdAt,value
2022-09-28T00:00:16.780Z,18.13
2022-09-28T00:02:47.122Z,19.33
2022-09-28T00:05:17.020Z,19.15
2022-09-28T00:07:46.795Z,18.45
2022-09-28T00:10:17.491Z,17.02
2022-09-28T00:12:47.370Z,17.17
2022-09-28T00:15:17.160Z,16.23
2022-09-28T00:17:47.350Z,14.88
2022-09-28T00:20:18.869Z,14.98
2022-09-28T00:22:48.626Z,14.73
2022-09-28T00:25:18.486Z,15.18
2022-09-28T00:27:52.665Z,16.77
2022-09-28T00:30:22.449Z,18.00
2022-09-28T00:32:52.491Z,18.77
2022-09-28T00:35:22.766Z,19.38
2022-09-28T00:37:52.730Z,16.30
2022-09-28T00:40:22.548Z,17.17
2022-09-28T00:42:52.592Z,16.52
2022-09-28T00:45:22.624Z,14.32
2022-09-28T00:47:53.568Z,11.80
2022-09-28T00:50:33.507Z,13.48
2022-09-28T00:53:06.570Z,11.85
2022-09-28T00:55:38.604Z,11.70
2022-09-28T00:58:08.767Z,10.73
2022-09-28T01:00:38.597Z,10.02
2022-09-28T01:03:08.367Z,10.60
2022-09-28T01:05:39.697Z,9.55
2022-09-28T01:08:10.271Z,8.80
2022-09-28T01:10:40.214Z,8.93
2022-09-28T01:13:10.129Z,9.40
2022-09-28T01:15:44.355Z,8.45
2022-09-28T01:18:15.793Z,7.93
2022-09-28T01:20:52.606Z,8.40
2022-09-28T01:23:28.500Z,8.13
2022-09-28T01:26:21.220Z,6.60
2022-09-28T01:28:50.900Z,6.97
2022-09-28T01:31:20.720Z,7.10
2022-09-28T01:33:59.179Z,7.60
2022-09-28T01:36:30.913Z,7.07
2022-09-28T01:39:10.667Z,6.72
2022-09-28T01:41:42.664Z,6.65
2022-09-28T01:44:13.115Z,6.85
2022-09-28T01:46:46.253Z,5.65
2022-09-28T01:49:16.038Z,6.25
2022-09-28T01:51:57.615Z,5.85
2022-09-28T01:54:31.949Z,7.38
2022-09-28T01:57:13.958Z,6.68
2022-09-28T01:59:44.706Z,6.35
2022-09-28T02:02:20.241Z,7.25
2022-09-28T02:05:10.857Z,8.30
2022-09-28T02:07:40.837Z,7.50
2022-09-28T02:10:22.481Z,7.45
2022-09-28T02:12:56.621Z,7.35
2022-09-28T02:15:27.384Z,6.93
2022-09-28T02:17:57.580Z,7.13
2022-09-28T02:20:27.554Z,7.07
2022-09-28T02:22:58.528Z,6.45
2022-09-28T02:25:46.134Z,6.68
2022-09-28T02:28:16.137Z,6.07
2022-09-28T02:30:46.735Z,7.78
2022-09-28T02:33:21.949Z,7.30
2022-09-28T02:35:52.071Z,5.90
2022-09-28T02:38:22.039Z,6.18
2022-09-28T02:41:06.338Z,5.10
2022-09-28T02:43:48.553Z,5.30
2022-09-28T02:46:38.210Z,5.70
2022-09-28T02:49:31.336Z,5.18
2022-09-28T02:52:01.298Z,2.92
2022-09-28T02:54:49.369Z,3.80
2022-09-28T02:57:19.220Z,4.10
2022-09-28T02:59:52.284Z,5.20
2022-09-28T03:02:35.102Z,4.50
2022-09-28T03:05:14.815Z,3.70
2022-09-28T03:07:57.097Z,5.28
2022-09-28T03:10:33.244Z,5.35
2022-09-28T03:13:03.062Z,4.97
2022-09-28T03:15:36.385Z,5.22
2022-09-28T03:18:06.323Z,5.97
2022-09-28T03:20:36.635Z,5.40
2022-09-28T03:23:23.984Z,6.20
2022-09-28T03:25:54.889Z,3.70
2022-09-28T03:28:24.841Z,3.90
2022-09-28T03:30:54.508Z,10.20
2022-09-28T03:33:24.440Z,4.72
2022-09-28T03:35:54.949Z,6.30
2022-09-28T03:38:24.876Z,3.70
2022-09-28T03:41:01.125Z,3.17
2022-09-28T03:43:31.062Z,3.08
2022-09-28T03:46:01.585Z,3.00
2022-09-28T03:48:32.836Z,5.78
2022-09-28T03:51:03.653Z,4.88
2022-09-28T03:53:33.582Z,5.72
2022-09-28T03:56:10.206Z,4.95
2022-09-28T03:58:40.159Z,5.82
2022-09-28T04:01:14.122Z,4.57
2022-09-28T04:03:45.774Z,4.05
2022-09-28T04:06:15.571Z,3.97
2022-09-28T04:08:45.508Z,4.40
2022-09-28T04:11:15.311Z,6.03
2022-09-28T04:13:45.705Z,7.55
2022-09-28T04:16:17.509Z,6.65
2022-09-28T04:18:48.792Z,8.00
2022-09-28T04:21:19.687Z,7.28
2022-09-28T04:23:50.375Z,8.10
2022-09-28T04:26:26.608Z,7.90
2022-09-28T04:29:14.371Z,6.88
2022-09-28T04:31:51.172Z,7.00
2022-09-28T04:34:36.589Z,7.30
2022-09-28T04:37:08.769Z,5.75
2022-09-28T04:39:42.240Z,6.07
2022-09-28T04:42:14.859Z,6.18
2022-09-28T04:44:44.769Z,5.22
2022-09-28T04:47:14.435Z,4.07
2022-09-28T04:49:44.160Z,4.93
2022-09-28T04:52:18.089Z,3.97
2022-09-28T04:54:48.394Z,4.25
2022-09-28T04:57:18.075Z,3.50
2022-09-28T04:59:48.133Z,3.83
2022-09-28T05:02:18.677Z,2.95
2022-09-28T05:04:48.759Z,3.00
2022-09-28T05:07:18.696Z,3.22
2022-09-28T05:09:48.589Z,2.22
2022-09-28T05:12:18.533Z,2.22
2022-09-28T05:14:48.771Z,3.40
2022-09-28T05:17:18.703Z,2.85
2022-09-28T05:19:48.687Z,3.70
2022-09-28T05:22:18.762Z,3.88
2022-09-28T05:24:48.792Z,3.25
2022-09-28T05:27:18.696Z,3.88
2022-09-28T05:29:48.486Z,3.63
2022-09-28T05:32:18.557Z,3.35
2022-09-28T05:34:48.458Z,4.65
2022-09-28T05:37:18.123Z,2.60
2022-09-28T05:39:48.040Z,2.75
2022-09-28T05:42:17.706Z,2.45
2022-09-28T05:44:47.438Z,3.00
2022-09-28T05:47:17.505Z,2.65
2022-09-28T05:49:47.351Z,3.47
2022-09-28T05:52:17.548Z,3.03
2022-09-28T05:54:47.344Z,3.20
2022-09-28T05:57:20.304Z,2.95
2022-09-28T05:59:50.267Z,3.20
2022-09-28T06:02:20.423Z,2.97
2022-09-28T06:04:52.748Z,3.13
2022-09-28T06:07:26.564Z,3.10
2022-09-28T06:09:56.299Z,3.40
2022-09-28T06:12:29.967Z,4.07
2022-09-28T06:15:02.901Z,3.67
2022-09-28T06:17:33.228Z,4.10
2022-09-28T06:20:03.498Z,3.70
2022-09-28T06:22:33.687Z,3.83
2022-09-28T06:25:03.719Z,3.65
2022-09-28T06:27:33.791Z,3.38
2022-09-28T06:30:06.997Z,4.15
2022-09-28T06:32:37.797Z,3.88
2022-09-28T06:35:12.451Z,5.30
2022-09-28T06:37:45.263Z,3.65
2022-09-28T06:40:15.416Z,3.75
2022-09-28T06:42:45.404Z,4.03
2022-09-28T06:45:15.574Z,4.15
2022-09-28T06:47:45.630Z,3.75
2022-09-28T06:50:16.022Z,3.85
2022-09-28T06:52:45.794Z,4.32
2022-09-28T06:55:16.265Z,3.92
2022-09-28T06:57:46.377Z,3.83
2022-09-28T07:00:16.356Z,4.68
2022-09-28T07:02:59.592Z,3.55
2022-09-28T07:05:30.615Z,3.97
2022-09-28T07:08:00.914Z,3.55
2022-09-28T07:10:31.163Z,2.80
2022-09-28T07:13:02.987Z,3.17
2022-09-28T07:15:33.067Z,3.22
2022-09-28T07:18:04.132Z,3.65
2022-09-28T07:20:49.489Z,2.70
2022-09-28T07:23:21.861Z,3.13
2022-09-28T07:25:51.798Z,4.00
2022-09-28T07:28:22.763Z,4.05
2022-09-28T07:30:52.557Z,4.68
2022-09-28T07:33:23.077Z,5.00
2022-09-28T07:35:54.652Z,4.90
2022-09-28T07:38:25.230Z,4.70
2022-09-28T07:41:14.680Z,5.20
2022-09-28T07:43:44.907Z,5.05
2022-09-28T07:46:15.269Z,6.32
2022-09-28T07:48:47.296Z,5.70
2022-09-28T07:51:19.372Z,6.88
2022-09-28T07:53:49.782Z,6.50
2022-09-28T07:56:20.030Z,5.78
2022-09-28T07:58:50.519Z,5.85
2022-09-28T08:01:20.605Z,5.75
2022-09-28T08:03:50.487Z,7.07
2022-09-28T08:06:20.408Z,5.50
2022-09-28T08:08:50.636Z,5.28
2022-09-28T08:11:21.005Z,5.80
2022-09-28T08:13:51.196Z,5.40
2022-09-28T08:16:21.642Z,5.50
2022-09-28T08:18:51.729Z,6.03
2022-09-28T08:21:39.583Z,7.07
2022-09-28T08:24:09.403Z,5.30
2022-09-28T08:26:39.073Z,5.10
2022-09-28T08:29:09.826Z,4.55
2022-09-28T08:31:39.751Z,4.55
2022-09-28T08:34:09.902Z,4.70
2022-09-28T08:36:40.471Z,98.78
2022-09-28T08:39:10.251Z,6.53
2022-09-28T08:41:44.723Z,4.40
2022-09-28T08:44:15.299Z,3.90
2022-09-28T08:46:46.832Z,4.90
2022-09-28T08:49:38.129Z,3.60
2022-09-28T08:52:07.857Z,5.07
2022-09-28T08:54:50.504Z,5.95
2022-09-28T08:57:52.655Z,6.35
2022-09-28T09:00:39.431Z,5.80
2022-09-28T09:03:09.249Z,7.65
2022-09-28T09:05:45.500Z,6.72
2022-09-28T09:08:18.421Z,8.75
2022-09-28T09:10:54.503Z,8.35
2022-09-28T09:13:30.540Z,7.50
2022-09-28T09:16:00.509Z,8.00
2022-09-28T09:18:36.238Z,6.63
2022-09-28T09:21:20.823Z,8.40
2022-09-28T09:24:00.458Z,8.23
2022-09-28T09:26:36.851Z,8.50
2022-09-28T09:29:09.710Z,9.05
2022-09-28T09:31:48.789Z,9.63
2022-09-28T09:39:33.554Z,10.63
2022-09-28T09:42:06.112Z,10.85
2022-09-28T09:44:36.783Z,11.95
2022-09-28T09:47:26.440Z,12.60
2022-09-28T09:50:09.201Z,12.07
2022-09-28T09:52:48.010Z,11.30
2022-09-28T09:55:18.964Z,11.68
2022-09-28T09:57:55.498Z,28.40
2022-09-28T10:00:25.180Z,16.00
2022-09-28T10:02:55.352Z,10.57
2022-09-28T10:05:27.277Z,11.40
2022-09-28T10:08:07.051Z,10.48
2022-09-28T10:10:37.758Z,12.50
2022-09-28T10:13:07.703Z,12.48
2022-09-28T10:15:38.241Z,12.00
2022-09-28T10:18:09.925Z,12.60
2022-09-28T10:20:43.132Z,11.30
2022-09-28T10:23:16.912Z,12.02
2022-09-28T10:25:46.840Z,11.48
2022-09-28T10:28:18.776Z,14.05
2022-09-28T10:30:48.872Z,14.13
2022-09-28T10:33:33.156Z,14.43
2022-09-28T10:36:03.545Z,13.18
2022-09-28T10:38:33.544Z,14.88
2022-09-28T10:41:23.327Z,14.93
2022-09-28T10:44:07.683Z,16.58
2022-09-28T10:46:37.787Z,17.45
2022-09-28T10:49:09.341Z,18.83
2022-09-28T10:51:48.519Z,19.25
2022-09-28T10:54:22.483Z,19.98
2022-09-28T10:56:52.615Z,46.08
2022-09-28T10:59:31.790Z,22.85
2022-09-28T11:02:03.121Z,23.50
2022-09-28T11:04:33.536Z,24.25
2022-09-28T11:07:03.618Z,25.95
2022-09-28T11:09:36.460Z,26.98
2022-09-28T11:12:07.560Z,29.55
2022-09-28T11:14:44.565Z,28.20
2022-09-28T11:17:18.262Z,29.83
2022-09-28T11:19:48.335Z,29.15
2022-09-28T11:22:30.639Z,29.38
2022-09-28T11:25:18.791Z,32.35
2022-09-28T11:27:55.155Z,33.20
2022-09-28T11:30:26.725Z,33.50
2022-09-28T11:32:57.630Z,30.10
2022-09-28T11:35:32.877Z,31.77
2022-09-28T11:38:24.522Z,31.55
2022-09-28T11:40:54.900Z,29.30
2022-09-28T11:43:28.396Z,31.67
2022-09-28T11:46:02.703Z,31.30
2022-09-28T11:48:52.773Z,28.85
2022-09-28T11:51:33.185Z,30.02
2022-09-28T11:54:06.783Z,33.20
2022-09-28T11:56:37.392Z,36.05
2022-09-28T11:59:14.341Z,35.65
2022-09-28T12:01:44.879Z,37.13
2022-09-28T12:04:20.497Z,65.20
2022-09-28T12:06:54.800Z,34.97
2022-09-28T12:09:39.363Z,38.80
2022-09-28T12:12:21.099Z,39.45
2022-09-28T12:14:51.976Z,40.42
2022-09-28T12:17:48.929Z,38.15
2022-09-28T12:20:42.209Z,36.80
2022-09-28T12:23:18.734Z,36.08
2022-09-28T12:25:50.266Z,36.13
2022-09-28T12:28:46.596Z,33.67
2022-09-28T12:31:24.499Z,33.00
2022-09-28T12:33:56.866Z,32.28
2022-09-28T12:36:47.125Z,31.10
2022-09-28T12:39:56.337Z,32.22
2022-09-28T12:42:32.053Z,36.30
2022-09-28T12:45:06.925Z,35.83
2022-09-28T12:47:50.924Z,33.45
2022-09-28T12:50:44.028Z,36.13
2022-09-28T12:53:36.603Z,36.03
2022-09-28T12:56:08.380Z,36.30
2022-09-28T12:58:56.010Z,38.63
2022-09-28T13:01:37.865Z,36.63
2022-09-28T13:04:15.168Z,36.20
2022-09-28T13:06:45.956Z,36.60
2022-09-28T13:09:24.395Z,38.88
2022-09-28T13:12:13.671Z,40.85
2022-09-28T13:15:02.925Z,41.53
2022-09-28T13:17:36.779Z,38.22
2022-09-28T13:20:25.748Z,43.28
2022-09-28T13:23:13.263Z,42.85
2022-09-28T13:25:44.685Z,44.40
2022-09-28T13:28:17.555Z,49.70
2022-09-28T13:30:48.393Z,54.38
2022-09-28T13:33:42.863Z,55.67
2022-09-28T13:36:28.743Z,54.97
2022-09-28T13:39:01.862Z,56.90
2022-09-28T13:41:36.459Z,56.05
2022-09-28T13:44:18.917Z,57.00
2022-09-28T13:46:55.660Z,55.80
2022-09-28T13:49:45.196Z,58.00
2022-09-28T13:52:18.834Z,59.20
2022-09-28T13:55:07.132Z,52.97
2022-09-28T13:57:59.164Z,53.17
2022-09-28T14:00:34.730Z,54.30
2022-09-28T14:03:08.366Z,51.10
2022-09-28T14:05:45.206Z,48.45
2022-09-28T14:08:31.014Z,44.85
2022-09-28T14:11:23.455Z,45.28
2022-09-28T14:14:16.454Z,45.90
2022-09-28T14:16:50.068Z,48.63
2022-09-28T14:19:20.619Z,48.38
2022-09-28T14:21:54.233Z,46.40
2022-09-28T14:24:24.606Z,45.97
2022-09-28T14:27:18.137Z,45.88
2022-09-28T14:29:48.342Z,46.15
2022-09-28T14:32:21.550Z,44.78
2022-09-28T14:34:58.811Z,43.95
2022-09-28T14:37:53.702Z,43.38
2022-09-28T14:40:49.902Z,41.75
2022-09-28T14:43:30.509Z,40.70
2022-09-28T14:46:12.815Z,39.33
2022-09-28T14:48:56.366Z,41.38
2022-09-28T14:51:31.590Z,39.45
2022-09-28T14:54:06.205Z,40.10
2022-09-28T14:56:48.772Z,38.45
2022-09-28T14:59:28.865Z,37.72
2022-09-28T15:01:59.359Z,35.47
2022-09-28T15:04:29.980Z,37.80
2022-09-28T15:06:59.872Z,37.28
2022-09-28T15:09:36.440Z,36.75
2022-09-28T15:12:15.267Z,36.58
2022-09-28T15:14:47.371Z,35.13
2022-09-28T15:17:19.120Z,34.78
2022-09-28T15:19:54.608Z,33.08
2022-09-28T15:22:24.365Z,32.53
2022-09-28T15:25:02.179Z,32.95
2022-09-28T15:27:39.125Z,31.83
2022-09-28T15:30:26.911Z,33.97
2022-09-28T15:32:58.384Z,32.03
2022-09-28T15:35:28.994Z,34.30
2022-09-28T15:38:00.272Z,32.97
2022-09-28T15:40:40.471Z,34.33
2022-09-28T15:43:34.630Z,34.00
2022-09-28T15:46:17.732Z,36.83
2022-09-28T15:48:53.192Z,32.60
2022-09-28T15:51:23.517Z,34.38
2022-09-28T15:54:11.273Z,33.90
2022-09-28T15:57:06.852Z,36.10
2022-09-28T15:59:38.130Z,36.65
2022-09-28T16:02:15.587Z,35.42
2022-09-28T16:05:08.510Z,34.17
2022-09-28T16:07:42.921Z,33.97
2022-09-28T16:10:15.800Z,31.75
2022-09-28T16:12:49.650Z,35.72
2022-09-28T16:15:21.879Z,33.47
2022-09-28T16:17:56.067Z,32.78
2022-09-28T16:20:33.346Z,33.45
2022-09-28T16:23:07.406Z,40.03
2022-09-28T16:25:38.774Z,32.63
2022-09-28T16:28:08.845Z,31.00
2022-09-28T16:30:38.878Z,31.98
2022-09-28T16:33:09.441Z,33.08
2022-09-28T16:35:45.426Z,37.47
2022-09-28T16:38:18.913Z,33.67
2022-09-28T16:40:52.135Z,31.60
2022-09-28T16:43:31.674Z,31.65
2022-09-28T16:46:07.701Z,31.45
2022-09-28T16:48:38.609Z,33.67
2022-09-28T16:51:08.732Z,38.35
2022-09-28T16:53:56.833Z,30.35
2022-09-28T16:56:26.416Z,29.52
2022-09-28T16:58:56.555Z,34.75
2022-09-28T17:01:26.316Z,34.88
2022-09-28T17:03:56.161Z,36.30
2022-09-28T17:06:29.315Z,34.35
2022-09-28T17:08:59.885Z,34.80
2022-09-28T17:11:29.516Z,35.67
2022-09-28T17:14:00.274Z,35.35
2022-09-28T17:17:02.329Z,36.63
2022-09-28T17:19:26.962Z,34.60
2022-09-28T17:21:56.711Z,32.70
2022-09-28T17:24:26.349Z,33.50
2022-09-28T17:26:56.126Z,30.95
2022-09-28T17:29:25.878Z,31.67
2022-09-28T17:31:56.455Z,30.17
2022-09-28T17:34:26.667Z,32.38
2022-09-28T17:36:57.367Z,31.30
2022-09-28T17:39:27.102Z,30.33
2022-09-28T17:41:56.859Z,28.88
2022-09-28T17:44:26.450Z,29.90
2022-09-28T17:46:56.103Z,27.95
2022-09-28T17:49:26.065Z,28.95
2022-09-28T17:51:56.416Z,29.90
2022-09-28T17:54:27.003Z,30.17
2022-09-28T17:56:56.771Z,32.60
2022-09-28T17:59:28.023Z,28.92
2022-09-28T18:02:01.522Z,29.58
2022-09-28T18:04:51.244Z,28.05
2022-09-28T18:07:21.898Z,26.83
2022-09-28T18:09:58.443Z,25.58
2022-09-28T18:12:28.144Z,27.83
2022-09-28T18:14:57.861Z,27.45
2022-09-28T18:17:27.422Z,26.35
2022-09-28T18:19:57.150Z,26.33
2022-09-28T18:22:26.860Z,25.52
2022-09-28T18:24:56.292Z,25.85
2022-09-28T18:27:25.699Z,22.92
2022-09-28T18:29:55.395Z,25.27
2022-09-28T18:32:25.388Z,23.70
2022-09-28T18:34:55.174Z,23.83
2022-09-28T18:37:24.747Z,23.90
2022-09-28T18:39:54.314Z,24.00
2022-09-28T18:42:24.658Z,23.15
2022-09-28T18:44:54.519Z,22.95
2022-09-28T18:47:24.759Z,22.60
2022-09-28T18:49:54.381Z,21.73
2022-09-28T18:52:24.041Z,22.60
2022-09-28T18:54:53.633Z,22.73
2022-09-28T18:57:24.014Z,21.88
2022-09-28T18:59:53.680Z,23.63
2022-09-28T19:02:23.651Z,21.85
2022-09-28T19:04:53.605Z,21.77
2022-09-28T19:07:23.253Z,22.30
2022-09-28T19:09:54.236Z,24.10
2022-09-28T19:12:24.124Z,22.23
2022-09-28T19:14:54.377Z,22.70
2022-09-28T19:17:24.321Z,23.65
2022-09-28T19:19:54.248Z,25.10
2022-09-28T19:22:23.963Z,23.75
2022-09-28T19:24:53.616Z,25.10
2022-09-28T19:27:23.460Z,25.13
2022-09-28T19:29:53.405Z,22.08
2022-09-28T19:32:23.294Z,20.77
2022-09-28T19:34:53.109Z,20.63
2022-09-28T19:37:23.037Z,23.25
2022-09-28T19:39:53.058Z,21.00
2022-09-28T19:42:23.083Z,23.35
2022-09-28T19:44:52.709Z,22.88
2022-09-28T19:47:23.057Z,21.13
2022-09-28T19:49:52.919Z,22.05
2022-09-28T19:52:22.610Z,20.90
2022-09-28T19:54:58.563Z,22.98
2022-09-28T19:57:32.438Z,21.90
2022-09-28T20:00:03.980Z,20.27
2022-09-28T20:02:33.770Z,19.40
2022-09-28T20:05:03.493Z,20.63
2022-09-28T20:07:34.863Z,20.58
2022-09-28T20:10:04.565Z,20.42
2022-09-28T20:12:34.290Z,20.48
2022-09-28T20:15:04.117Z,20.35
2022-09-28T20:17:33.826Z,19.42
2022-09-28T20:20:03.713Z,19.05
2022-09-28T20:22:33.555Z,19.58
2022-09-28T20:25:04.333Z,19.17
2022-09-28T20:27:33.948Z,17.55
2022-09-28T20:30:03.760Z,17.52
2022-09-28T20:32:36.809Z,17.48
2022-09-28T20:35:06.624Z,15.43
2022-09-28T20:37:36.375Z,14.85
2022-09-28T20:40:06.412Z,14.38
2022-09-28T20:42:36.307Z,14.88
2022-09-28T20:45:06.692Z,14.95
2022-09-28T20:47:36.576Z,13.85
2022-09-28T20:50:07.942Z,14.25
2022-09-28T20:52:37.624Z,13.95
2022-09-28T20:55:07.679Z,13.32
2022-09-28T20:57:37.299Z,12.93
2022-09-28T21:00:07.152Z,12.45
2022-09-28T21:02:36.817Z,12.88
2022-09-28T21:05:08.387Z,12.52
2022-09-28T21:07:38.071Z,12.90
2022-09-28T21:10:07.940Z,11.82
2022-09-28T21:12:38.277Z,11.43
2022-09-28T21:15:08.423Z,13.02
2022-09-28T21:17:38.165Z,11.05
2022-09-28T21:20:08.059Z,11.32
2022-09-28T21:22:37.717Z,10.80
2022-09-28T21:25:07.689Z,12.00
2022-09-28T21:27:38.157Z,12.10
2022-09-28T21:30:08.368Z,11.23
2022-09-28T21:32:38.118Z,9.80
2022-09-28T21:35:08.013Z,11.00
2022-09-28T21:37:38.662Z,10.20
2022-09-28T21:40:11.158Z,9.50
2022-09-28T21:42:40.823Z,9.60
2022-09-28T21:45:11.607Z,8.43
2022-09-28T21:47:42.703Z,9.40
2022-09-28T21:50:12.425Z,9.65
2022-09-28T21:52:42.217Z,7.97
2022-09-28T21:55:12.342Z,7.43
2022-09-28T21:57:42.055Z,7.43
2022-09-28T22:00:13.606Z,8.10
2022-09-28T22:02:43.325Z,7.47
2022-09-28T22:05:13.523Z,6.20
2022-09-28T22:07:43.664Z,6.47
2022-09-28T22:10:14.529Z,5.03
2022-09-28T22:12:44.157Z,5.95
2022-09-28T22:15:13.856Z,5.20
2022-09-28T22:17:43.679Z,5.75
2022-09-28T22:20:13.339Z,6.10
2022-09-28T22:22:43.120Z,6.60
2022-09-28T22:25:12.816Z,6.28
2022-09-28T22:27:42.642Z,5.93
2022-09-28T22:30:12.659Z,6.05
2022-09-28T22:32:43.358Z,6.68
2022-09-28T22:35:12.998Z,6.63
2022-09-28T22:37:42.778Z,6.15
2022-09-28T22:40:14.137Z,6.95
2022-09-28T22:42:44.571Z,6.50
2022-09-28T22:45:14.553Z,10.02
2022-09-28T22:47:44.471Z,13.07
2022-09-28T22:50:14.141Z,14.88
2022-09-28T22:52:43.788Z,22.25
2022-09-28T22:55:14.279Z,21.48
2022-09-28T22:57:43.903Z,13.65
2022-09-28T23:00:13.677Z,14.65
2022-09-28T23:02:43.428Z,12.95
2022-09-28T23:05:13.279Z,20.23
2022-09-28T23:07:43.090Z,23.83
2022-09-28T23:10:13.126Z,23.75
2022-09-28T23:12:43.173Z,24.10
2022-09-28T23:15:13.327Z,25.20
2022-09-28T23:17:42.926Z,26.65
2022-09-28T23:20:12.887Z,25.58
2022-09-28T23:22:42.747Z,27.58
2022-09-28T23:25:12.441Z,30.25
2022-09-28T23:27:42.133Z,28.27
2022-09-28T23:30:12.431Z,26.60
2022-09-28T23:32:42.845Z,27.38
2022-09-28T23:35:12.833Z,29.48
2022-09-28T23:37:42.657Z,31.38
2022-09-28T23:40:12.601Z,29.88
2022-09-28T23:42:42.665Z,25.35
2022-09-28T23:45:12.636Z,26.13
2022-09-28T23:47:42.361Z,25.95
2022-09-28T23:50:12.323Z,25.85
2022-09-28T23:52:42.097Z,25.88
2022-09-28T23:55:11.882Z,19.45
2022-09-28T23:57:42.571Z,17.00
